sensor_id;sensor_type;location;lat;lon;timestamp;P1;durP1;ratioP1;P2;durP2;ratioP2
35576;SDS011;21680;52.400;16.920;2023-11-19T00:02:12;69.30;;;31.20;;
35576;SDS011;21680;52.400;16.920;2023-11-19T00:04:37;70.60;;;29.30;;
35576;SDS011;21680;52.400;16.920;2023-11-19T00:07:06;66.50;;;25.60;;
35576;SDS011;21680;52.400;16.920;2023-11-19T00:09:33;68.40;;;28.40;;
35576;SDS011;21680;52.400;16.920;2023-11-19T00:11:59;65.90;;;26.70;;
35576;SDS011;21680;52.400;16.920;2023-11-19T00:14:25;64.00;;;26.80;;
35576;SDS011;21680;52.400;16.920;2023-11-19T00:16:51;65.80;;;27.20;;
35576;SDS011;21680;52.400;16.920;2023-11-19T00:19:16;61.30;;;27.00;;
35576;SDS011;21680;52.400;16.920;2023-11-19T00:21:42;57.60;;;26.30;;
35576;SDS011;21680;52.400;16.920;2023-11-19T00:24:08;65.40;;;26.50;;
35576;SDS011;21680;52.400;16.920;2023-11-19T00:26:33;61.50;;;26.00;;
35576;SDS011;21680;52.400;16.920;2023-11-19T00:28:59;62.20;;;27.30;;
35576;SDS011;21680;52.400;16.920;2023-11-19T00:31:24;63.00;;;27.20;;
35576;SDS011;21680;52.400;16.920;2023-11-19T00:33:53;61.80;;;26.30;;
35576;SDS011;21680;52.400;16.920;2023-11-19T00:36:18;64.50;;;26.30;;
35576;SDS011;21680;52.400;16.920;2023-11-19T00:38:44;62.40;;;27.00;;
35576;SDS011;21680;52.400;16.920;2023-11-19T00:41:09;59.60;;;24.90;;
35576;SDS011;21680;52.400;16.920;2023-11-19T00:43:35;56.70;;;26.40;;
35576;SDS011;21680;52.400;16.920;2023-11-19T00:46:01;56.00;;;24.90;;
35576;SDS011;21680;52.400;16.920;2023-11-19T00:48:29;59.40;;;26.30;;
35576;SDS011;21680;52.400;16.920;2023-11-19T00:50:54;56.40;;;25.90;;
35576;SDS011;21680;52.400;16.920;2023-11-19T00:53:19;69.30;;;28.80;;
35576;SDS011;21680;52.400;16.920;2023-11-19T00:55:45;66.70;;;27.60;;
35576;SDS011;21680;52.400;16.920;2023-11-19T00:58:10;67.70;;;27.80;;
35576;SDS011;21680;52.400;16.920;2023-11-19T01:00:35;62.20;;;26.60;;
35576;SDS011;21680;52.400;16.920;2023-11-19T01:03:01;67.70;;;27.00;;
35576;SDS011;21680;52.400;16.920;2023-11-19T01:05:26;62.10;;;27.10;;
35576;SDS011;21680;52.400;16.920;2023-11-19T01:07:53;61.00;;;26.50;;
35576;SDS011;21680;52.400;16.920;2023-11-19T01:10:19;64.60;;;27.60;;
35576;SDS011;21680;52.400;16.920;2023-11-19T01:12:45;67.10;;;27.20;;
35576;SDS011;21680;52.400;16.920;2023-11-19T01:15:10;61.50;;;26.80;;
35576;SDS011;21680;52.400;16.920;2023-11-19T01:17:39;66.90;;;27.80;;
35576;SDS011;21680;52.400;16.920;2023-11-19T01:20:05;67.80;;;28.50;;
35576;SDS011;21680;52.400;16.920;2023-11-19T01:22:31;57.20;;;24.70;;
35576;SDS011;21680;52.400;16.920;2023-11-19T01:24:57;64.00;;;28.50;;
35576;SDS011;21680;52.400;16.920;2023-11-19T01:27:23;74.00;;;29.60;;
35576;SDS011;21680;52.400;16.920;2023-11-19T01:29:49;67.60;;;28.10;;
35576;SDS011;21680;52.400;16.920;2023-11-19T01:32:15;67.60;;;28.90;;
35576;SDS011;21680;52.400;16.920;2023-11-19T01:34:41;66.00;;;28.30;;
35576;SDS011;21680;52.400;16.920;2023-11-19T01:37:06;68.30;;;30.10;;
35576;SDS011;21680;52.400;16.920;2023-11-19T01:39:34;69.00;;;29.10;;
35576;SDS011;21680;52.400;16.920;2023-11-19T01:41:59;68.70;;;27.80;;
35576;SDS011;21680;52.400;16.920;2023-11-19T01:44:25;63.60;;;28.20;;
35576;SDS011;21680;52.400;16.920;2023-11-19T01:46:50;66.00;;;30.60;;
35576;SDS011;21680;52.400;16.920;2023-11-19T01:49:16;69.50;;;29.20;;
35576;SDS011;21680;52.400;16.920;2023-11-19T01:51:43;68.80;;;29.30;;
35576;SDS011;21680;52.400;16.920;2023-11-19T01:54:08;67.00;;;28.50;;
35576;SDS011;21680;52.400;16.920;2023-11-19T01:56:35;65.30;;;30.00;;
35576;SDS011;21680;52.400;16.920;2023-11-19T01:59:02;71.90;;;29.50;;
35576;SDS011;21680;52.400;16.920;2023-11-19T02:01:28;69.00;;;28.40;;
35576;SDS011;21680;52.400;16.920;2023-11-19T02:03:57;63.00;;;27.10;;
35576;SDS011;21680;52.400;16.920;2023-11-19T02:06:23;63.80;;;26.70;;
35576;SDS011;21680;52.400;16.920;2023-11-19T02:08:50;63.20;;;26.80;;
35576;SDS011;21680;52.400;16.920;2023-11-19T02:11:17;61.90;;;27.80;;
35576;SDS011;21680;52.400;16.920;2023-11-19T02:13:42;62.60;;;28.10;;
35576;SDS011;21680;52.400;16.920;2023-11-19T02:16:09;70.20;;;28.20;;
35576;SDS011;21680;52.400;16.920;2023-11-19T02:18:36;61.70;;;26.30;;
35576;SDS011;21680;52.400;16.920;2023-11-19T02:21:01;64.10;;;26.70;;
35576;SDS011;21680;52.400;16.920;2023-11-19T02:23:27;57.80;;;25.20;;
35576;SDS011;21680;52.400;16.920;2023-11-19T02:26:03;58.70;;;26.40;;
35576;SDS011;21680;52.400;16.920;2023-11-19T02:28:39;61.90;;;26.70;;
35576;SDS011;21680;52.400;16.920;2023-11-19T02:31:05;66.20;;;27.20;;
35576;SDS011;21680;52.400;16.920;2023-11-19T02:33:34;62.70;;;26.50;;
35576;SDS011;21680;52.400;16.920;2023-11-19T02:36:01;59.00;;;24.90;;
35576;SDS011;21680;52.400;16.920;2023-11-19T02:38:27;72.90;;;29.40;;
35576;SDS011;21680;52.400;16.920;2023-11-19T02:40:52;65.20;;;27.10;;
35576;SDS011;21680;52.400;16.920;2023-11-19T02:43:17;65.00;;;26.60;;
35576;SDS011;21680;52.400;16.920;2023-11-19T02:45:43;64.20;;;27.70;;
35576;SDS011;21680;52.400;16.920;2023-11-19T02:48:11;65.00;;;28.20;;
35576;SDS011;21680;52.400;16.920;2023-11-19T02:50:36;68.70;;;27.70;;
35576;SDS011;21680;52.400;16.920;2023-11-19T02:53:02;60.20;;;26.20;;
35576;SDS011;21680;52.400;16.920;2023-11-19T02:55:27;60.80;;;27.10;;
35576;SDS011;21680;52.400;16.920;2023-11-19T02:57:55;65.00;;;28.20;;
35576;SDS011;21680;52.400;16.920;2023-11-19T03:00:24;65.60;;;26.10;;
35576;SDS011;21680;52.400;16.920;2023-11-19T03:02:53;66.50;;;27.50;;
35576;SDS011;21680;52.400;16.920;2023-11-19T03:05:25;67.50;;;27.50;;
35576;SDS011;21680;52.400;16.920;2023-11-19T03:07:51;58.90;;;26.40;;
35576;SDS011;21680;52.400;16.920;2023-11-19T03:10:17;69.10;;;28.40;;
35576;SDS011;21680;52.400;16.920;2023-11-19T03:12:44;66.60;;;27.20;;
35576;SDS011;21680;52.400;16.920;2023-11-19T03:15:10;58.40;;;25.60;;
35576;SDS011;21680;52.400;16.920;2023-11-19T03:17:38;68.90;;;26.90;;
35576;SDS011;21680;52.400;16.920;2023-11-19T03:20:05;61.20;;;26.00;;
35576;SDS011;21680;52.400;16.920;2023-11-19T03:22:32;60.10;;;24.80;;
35576;SDS011;21680;52.400;16.920;2023-11-19T03:24:59;65.50;;;26.50;;
35576;SDS011;21680;52.400;16.920;2023-11-19T03:27:24;63.50;;;27.30;;
35576;SDS011;21680;52.400;16.920;2023-11-19T03:29:50;66.50;;;27.00;;
35576;SDS011;21680;52.400;16.920;2023-11-19T03:32:15;57.80;;;25.70;;
35576;SDS011;21680;52.400;16.920;2023-11-19T03:34:40;62.10;;;28.20;;
35576;SDS011;21680;52.400;16.920;2023-11-19T03:37:05;66.40;;;26.80;;
35576;SDS011;21680;52.400;16.920;2023-11-19T03:39:31;60.40;;;27.90;;
35576;SDS011;21680;52.400;16.920;2023-11-19T03:41:56;65.90;;;27.70;;
35576;SDS011;21680;52.400;16.920;2023-11-19T03:44:22;73.40;;;27.90;;
35576;SDS011;21680;52.400;16.920;2023-11-19T03:46:47;60.40;;;27.20;;
35576;SDS011;21680;52.400;16.920;2023-11-19T03:49:12;70.60;;;26.30;;
35576;SDS011;21680;52.400;16.920;2023-11-19T03:51:39;64.80;;;27.20;;
35576;SDS011;21680;52.400;16.920;2023-11-19T03:54:04;66.90;;;27.30;;
35576;SDS011;21680;52.400;16.920;2023-11-19T03:56:33;61.20;;;25.80;;
35576;SDS011;21680;52.400;16.920;2023-11-19T03:58:58;61.60;;;27.20;;
35576;SDS011;21680;52.400;16.920;2023-11-19T04:01:23;62.80;;;26.60;;
35576;SDS011;21680;52.400;16.920;2023-11-19T04:03:48;66.30;;;27.40;;
35576;SDS011;21680;52.400;16.920;2023-11-19T04:06:14;58.50;;;25.60;;
35576;SDS011;21680;52.400;16.920;2023-11-19T04:08:39;56.70;;;25.50;;
35576;SDS011;21680;52.400;16.920;2023-11-19T04:11:05;71.80;;;26.10;;
35576;SDS011;21680;52.400;16.920;2023-11-19T04:13:30;60.90;;;25.90;;
35576;SDS011;21680;52.400;16.920;2023-11-19T04:15:55;63.20;;;26.20;;
35576;SDS011;21680;52.400;16.920;2023-11-19T04:18:21;56.40;;;23.60;;
35576;SDS011;21680;52.400;16.920;2023-11-19T04:20:46;60.70;;;25.10;;
35576;SDS011;21680;52.400;16.920;2023-11-19T04:23:12;56.70;;;25.10;;
35576;SDS011;21680;52.400;16.920;2023-11-19T04:25:38;58.80;;;25.40;;
35576;SDS011;21680;52.400;16.920;2023-11-19T04:28:03;62.10;;;25.00;;
35576;SDS011;21680;52.400;16.920;2023-11-19T04:30:29;53.20;;;23.60;;
35576;SDS011;21680;52.400;16.920;2023-11-19T04:32:56;59.80;;;25.20;;
35576;SDS011;21680;52.400;16.920;2023-11-19T04:35:22;57.20;;;24.60;;
35576;SDS011;21680;52.400;16.920;2023-11-19T04:37:47;57.10;;;24.20;;
35576;SDS011;21680;52.400;16.920;2023-11-19T04:40:13;63.70;;;25.60;;
35576;SDS011;21680;52.400;16.920;2023-11-19T04:42:38;54.00;;;23.50;;
35576;SDS011;21680;52.400;16.920;2023-11-19T04:45:06;55.50;;;25.20;;
35576;SDS011;21680;52.400;16.920;2023-11-19T04:47:33;53.40;;;22.80;;
35576;SDS011;21680;52.400;16.920;2023-11-19T04:49:59;57.60;;;23.20;;
35576;SDS011;21680;52.400;16.920;2023-11-19T04:52:25;55.80;;;24.40;;
35576;SDS011;21680;52.400;16.920;2023-11-19T04:54:50;57.40;;;24.20;;
35576;SDS011;21680;52.400;16.920;2023-11-19T04:57:15;58.00;;;23.20;;
35576;SDS011;21680;52.400;16.920;2023-11-19T04:59:43;55.60;;;22.30;;
35576;SDS011;21680;52.400;16.920;2023-11-19T05:02:08;54.90;;;23.30;;
35576;SDS011;21680;52.400;16.920;2023-11-19T05:04:34;48.20;;;21.90;;
35576;SDS011;21680;52.400;16.920;2023-11-19T05:07:00;53.00;;;24.00;;
35576;SDS011;21680;52.400;16.920;2023-11-19T05:09:25;52.20;;;22.30;;
35576;SDS011;21680;52.400;16.920;2023-11-19T05:11:51;50.90;;;22.70;;
35576;SDS011;21680;52.400;16.920;2023-11-19T05:14:16;48.90;;;22.00;;
35576;SDS011;21680;52.400;16.920;2023-11-19T05:16:43;56.80;;;23.00;;
35576;SDS011;21680;52.400;16.920;2023-11-19T05:19:09;52.90;;;22.80;;
35576;SDS011;21680;52.400;16.920;2023-11-19T05:21:34;55.50;;;21.70;;
35576;SDS011;21680;52.400;16.920;2023-11-19T05:24:01;57.00;;;22.30;;
35576;SDS011;21680;52.400;16.920;2023-11-19T05:26:29;44.50;;;19.90;;
35576;SDS011;21680;52.400;16.920;2023-11-19T05:28:55;52.20;;;22.50;;
35576;SDS011;21680;52.400;16.920;2023-11-19T05:31:20;49.30;;;21.90;;
35576;SDS011;21680;52.400;16.920;2023-11-19T05:33:46;46.30;;;21.00;;
35576;SDS011;21680;52.400;16.920;2023-11-19T05:36:12;47.20;;;19.70;;
35576;SDS011;21680;52.400;16.920;2023-11-19T05:38:38;52.30;;;22.00;;
35576;SDS011;21680;52.400;16.920;2023-11-19T05:41:04;50.00;;;20.60;;
35576;SDS011;21680;52.400;16.920;2023-11-19T05:43:32;48.60;;;20.30;;
35576;SDS011;21680;52.400;16.920;2023-11-19T05:45:57;48.50;;;20.30;;
35576;SDS011;21680;52.400;16.920;2023-11-19T05:48:23;47.80;;;20.90;;
35576;SDS011;21680;52.400;16.920;2023-11-19T05:50:50;45.30;;;20.10;;
35576;SDS011;21680;52.400;16.920;2023-11-19T05:53:16;47.30;;;19.80;;
35576;SDS011;21680;52.400;16.920;2023-11-19T05:55:41;47.30;;;20.20;;
35576;SDS011;21680;52.400;16.920;2023-11-19T05:58:25;42.90;;;19.20;;
35576;SDS011;21680;52.400;16.920;2023-11-19T06:00:51;49.90;;;20.30;;
35576;SDS011;21680;52.400;16.920;2023-11-19T06:03:17;43.00;;;18.40;;
35576;SDS011;21680;52.400;16.920;2023-11-19T06:05:46;48.50;;;22.00;;
35576;SDS011;21680;52.400;16.920;2023-11-19T06:08:12;43.20;;;19.90;;
35576;SDS011;21680;52.400;16.920;2023-11-19T06:10:38;46.70;;;20.60;;
35576;SDS011;21680;52.400;16.920;2023-11-19T06:13:05;44.50;;;20.20;;
35576;SDS011;21680;52.400;16.920;2023-11-19T06:15:32;44.70;;;20.30;;
35576;SDS011;21680;52.400;16.920;2023-11-19T06:17:58;51.00;;;20.60;;
35576;SDS011;21680;52.400;16.920;2023-11-19T06:20:26;44.20;;;20.40;;
35576;SDS011;21680;52.400;16.920;2023-11-19T06:22:53;48.20;;;20.40;;
35576;SDS011;21680;52.400;16.920;2023-11-19T06:25:19;44.90;;;20.10;;
35576;SDS011;21680;52.400;16.920;2023-11-19T06:27:44;45.30;;;20.80;;
35576;SDS011;21680;52.400;16.920;2023-11-19T06:30:10;50.40;;;20.30;;
35576;SDS011;21680;52.400;16.920;2023-11-19T06:32:36;46.60;;;20.70;;
35576;SDS011;21680;52.400;16.920;2023-11-19T06:35:03;48.60;;;20.40;;
35576;SDS011;21680;52.400;16.920;2023-11-19T06:37:29;46.50;;;20.80;;
35576;SDS011;21680;52.400;16.920;2023-11-19T06:39:56;45.80;;;20.90;;
35576;SDS011;21680;52.400;16.920;2023-11-19T06:42:22;45.00;;;19.30;;
35576;SDS011;21680;52.400;16.920;2023-11-19T06:44:47;43.50;;;19.90;;
35576;SDS011;21680;52.400;16.920;2023-11-19T06:47:12;43.40;;;21.10;;
35576;SDS011;21680;52.400;16.920;2023-11-19T06:49:38;46.50;;;21.10;;
35576;SDS011;21680;52.400;16.920;2023-11-19T06:52:04;47.00;;;20.80;;
35576;SDS011;21680;52.400;16.920;2023-11-19T06:54:31;44.60;;;20.30;;
35576;SDS011;21680;52.400;16.920;2023-11-19T06:56:56;42.10;;;19.80;;
35576;SDS011;21680;52.400;16.920;2023-11-19T06:59:22;50.10;;;22.10;;
35576;SDS011;21680;52.400;16.920;2023-11-19T07:01:48;43.90;;;19.70;;
35576;SDS011;21680;52.400;16.920;2023-11-19T07:04:13;51.90;;;21.10;;
35576;SDS011;21680;52.400;16.920;2023-11-19T07:06:39;49.60;;;20.50;;
35576;SDS011;21680;52.400;16.920;2023-11-19T07:09:06;46.60;;;19.80;;
35576;SDS011;21680;52.400;16.920;2023-11-19T07:11:38;46.40;;;20.10;;
35576;SDS011;21680;52.400;16.920;2023-11-19T07:14:05;48.20;;;21.00;;
35576;SDS011;21680;52.400;16.920;2023-11-19T07:16:34;39.90;;;18.20;;
35576;SDS011;21680;52.400;16.920;2023-11-19T07:19:03;43.90;;;20.00;;
35576;SDS011;21680;52.400;16.920;2023-11-19T07:21:30;42.20;;;18.80;;
35576;SDS011;21680;52.400;16.920;2023-11-19T07:23:55;38.40;;;17.60;;
35576;SDS011;21680;52.400;16.920;2023-11-19T07:26:21;36.20;;;17.30;;
35576;SDS011;21680;52.400;16.920;2023-11-19T07:28:47;40.30;;;18.00;;
35576;SDS011;21680;52.400;16.920;2023-11-19T07:31:13;33.80;;;17.00;;
35576;SDS011;21680;52.400;16.920;2023-11-19T07:33:41;41.60;;;17.20;;
35576;SDS011;21680;52.400;16.920;2023-11-19T07:36:08;38.90;;;17.70;;
35576;SDS011;21680;52.400;16.920;2023-11-19T07:38:34;41.40;;;17.60;;
35576;SDS011;21680;52.400;16.920;2023-11-19T07:41:00;34.60;;;16.20;;
35576;SDS011;21680;52.400;16.920;2023-11-19T07:43:25;42.40;;;17.40;;
35576;SDS011;21680;52.400;16.920;2023-11-19T07:45:51;37.00;;;17.80;;
35576;SDS011;21680;52.400;16.920;2023-11-19T07:48:16;39.70;;;17.30;;
35576;SDS011;21680;52.400;16.920;2023-11-19T07:50:43;32.00;;;15.10;;
35576;SDS011;21680;52.400;16.920;2023-11-19T07:53:08;33.70;;;15.60;;
35576;SDS011;21680;52.400;16.920;2023-11-19T07:55:34;36.50;;;15.60;;
35576;SDS011;21680;52.400;16.920;2023-11-19T07:57:59;35.50;;;15.60;;
35576;SDS011;21680;52.400;16.920;2023-11-19T08:00:25;39.00;;;17.30;;
35576;SDS011;21680;52.400;16.920;2023-11-19T08:02:50;32.50;;;16.20;;
35576;SDS011;21680;52.400;16.920;2023-11-19T08:05:15;41.30;;;17.30;;
35576;SDS011;21680;52.400;16.920;2023-11-19T08:07:40;36.50;;;16.60;;
35576;SDS011;21680;52.400;16.920;2023-11-19T08:10:06;34.60;;;16.30;;
35576;SDS011;21680;52.400;16.920;2023-11-19T08:12:35;35.20;;;16.50;;
35576;SDS011;21680;52.400;16.920;2023-11-19T08:15:01;33.70;;;16.50;;
35576;SDS011;21680;52.400;16.920;2023-11-19T08:17:27;34.60;;;16.70;;
35576;SDS011;21680;52.400;16.920;2023-11-19T08:19:53;37.40;;;17.90;;
35576;SDS011;21680;52.400;16.920;2023-11-19T08:22:18;35.90;;;15.60;;
35576;SDS011;21680;52.400;16.920;2023-11-19T08:24:43;33.50;;;16.60;;
35576;SDS011;21680;52.400;16.920;2023-11-19T08:27:08;35.70;;;17.60;;
35576;SDS011;21680;52.400;16.920;2023-11-19T08:29:34;34.70;;;16.10;;
35576;SDS011;21680;52.400;16.920;2023-11-19T08:32:00;30.40;;;15.20;;
35576;SDS011;21680;52.400;16.920;2023-11-19T08:34:27;29.50;;;14.40;;
35576;SDS011;21680;52.400;16.920;2023-11-19T08:36:52;32.80;;;15.90;;
35576;SDS011;21680;52.400;16.920;2023-11-19T08:39:21;29.90;;;14.00;;
35576;SDS011;21680;52.400;16.920;2023-11-19T08:41:47;36.80;;;16.40;;
35576;SDS011;21680;52.400;16.920;2023-11-19T08:44:13;36.30;;;16.00;;
35576;SDS011;21680;52.400;16.920;2023-11-19T08:46:38;35.40;;;16.30;;
35576;SDS011;21680;52.400;16.920;2023-11-19T08:49:05;39.30;;;16.40;;
35576;SDS011;21680;52.400;16.920;2023-11-19T08:51:31;35.30;;;15.90;;
35576;SDS011;21680;52.400;16.920;2023-11-19T08:53:56;35.20;;;16.70;;
35576;SDS011;21680;52.400;16.920;2023-11-19T08:56:22;38.70;;;16.40;;
35576;SDS011;21680;52.400;16.920;2023-11-19T08:58:48;34.70;;;16.40;;
35576;SDS011;21680;52.400;16.920;2023-11-19T09:01:13;33.70;;;14.50;;
35576;SDS011;21680;52.400;16.920;2023-11-19T09:03:40;30.50;;;15.00;;
35576;SDS011;21680;52.400;16.920;2023-11-19T09:06:07;30.10;;;13.80;;
35576;SDS011;21680;52.400;16.920;2023-11-19T09:08:33;40.20;;;17.40;;
35576;SDS011;21680;52.400;16.920;2023-11-19T09:10:58;36.20;;;15.40;;
35576;SDS011;21680;52.400;16.920;2023-11-19T09:13:23;32.80;;;15.90;;
35576;SDS011;21680;52.400;16.920;2023-11-19T09:15:48;33.40;;;15.80;;
35576;SDS011;21680;52.400;16.920;2023-11-19T09:18:15;31.80;;;15.60;;
35576;SDS011;21680;52.400;16.920;2023-11-19T09:20:40;35.80;;;15.80;;
35576;SDS011;21680;52.400;16.920;2023-11-19T09:23:06;33.70;;;15.70;;
35576;SDS011;21680;52.400;16.920;2023-11-19T09:25:33;33.10;;;15.40;;
35576;SDS011;21680;52.400;16.920;2023-11-19T09:27:59;32.30;;;15.20;;
35576;SDS011;21680;52.400;16.920;2023-11-19T09:30:24;34.40;;;16.40;;
35576;SDS011;21680;52.400;16.920;2023-11-19T09:32:50;39.30;;;18.80;;
35576;SDS011;21680;52.400;16.920;2023-11-19T09:35:15;41.80;;;18.10;;
35576;SDS011;21680;52.400;16.920;2023-11-19T09:37:41;35.40;;;17.20;;
35576;SDS011;21680;52.400;16.920;2023-11-19T09:40:06;32.60;;;16.50;;
35576;SDS011;21680;52.400;16.920;2023-11-19T09:42:36;31.10;;;14.60;;
35576;SDS011;21680;52.400;16.920;2023-11-19T09:45:13;35.60;;;16.20;;
35576;SDS011;21680;52.400;16.920;2023-11-19T09:47:42;35.50;;;16.30;;
35576;SDS011;21680;52.400;16.920;2023-11-19T09:50:10;33.50;;;15.90;;
35576;SDS011;21680;52.400;16.920;2023-11-19T09:52:47;33.60;;;15.20;;
35576;SDS011;21680;52.400;16.920;2023-11-19T09:55:13;31.50;;;15.10;;
35576;SDS011;21680;52.400;16.920;2023-11-19T09:57:39;33.10;;;15.80;;
35576;SDS011;21680;52.400;16.920;2023-11-19T10:00:07;32.80;;;16.20;;
35576;SDS011;21680;52.400;16.920;2023-11-19T10:02:35;30.30;;;14.40;;
35576;SDS011;21680;52.400;16.920;2023-11-19T10:05:04;35.60;;;16.30;;
35576;SDS011;21680;52.400;16.920;2023-11-19T10:07:50;34.40;;;15.50;;
35576;SDS011;21680;52.400;16.920;2023-11-19T10:10:15;29.00;;;14.70;;
35576;SDS011;21680;52.400;16.920;2023-11-19T10:12:44;30.80;;;14.90;;
35576;SDS011;21680;52.400;16.920;2023-11-19T10:15:19;31.70;;;15.00;;
35576;SDS011;21680;52.400;16.920;2023-11-19T10:17:47;31.20;;;17.00;;
35576;SDS011;21680;52.400;16.920;2023-11-19T10:20:13;35.10;;;17.50;;
35576;SDS011;21680;52.400;16.920;2023-11-19T10:22:38;34.80;;;17.20;;
35576;SDS011;21680;52.400;16.920;2023-11-19T10:25:26;35.60;;;16.30;;
35576;SDS011;21680;52.400;16.920;2023-11-19T10:27:53;32.70;;;15.70;;
35576;SDS011;21680;52.400;16.920;2023-11-19T10:30:20;31.60;;;14.80;;
35576;SDS011;21680;52.400;16.920;2023-11-19T10:35:34;27.20;;;13.60;;
35576;SDS011;21680;52.400;16.920;2023-11-19T10:38:01;28.10;;;13.40;;
35576;SDS011;21680;52.400;16.920;2023-11-19T10:40:40;22.80;;;12.30;;
35576;SDS011;21680;52.400;16.920;2023-11-19T10:43:06;24.00;;;13.10;;
35576;SDS011;21680;52.400;16.920;2023-11-19T10:45:35;23.90;;;12.80;;
35576;SDS011;21680;52.400;16.920;2023-11-19T10:48:02;26.70;;;11.90;;
35576;SDS011;21680;52.400;16.920;2023-11-19T10:50:33;27.90;;;13.70;;
35576;SDS011;21680;52.400;16.920;2023-11-19T10:53:00;26.90;;;13.00;;
35576;SDS011;21680;52.400;16.920;2023-11-19T10:55:35;24.60;;;12.30;;
35576;SDS011;21680;52.400;16.920;2023-11-19T10:58:07;24.10;;;12.30;;
35576;SDS011;21680;52.400;16.920;2023-11-19T11:00:39;25.50;;;11.40;;
35576;SDS011;21680;52.400;16.920;2023-11-19T11:03:18;23.40;;;10.80;;
35576;SDS011;21680;52.400;16.920;2023-11-19T11:05:46;28.20;;;13.60;;
35576;SDS011;21680;52.400;16.920;2023-11-19T11:08:13;28.90;;;12.70;;
35576;SDS011;21680;52.400;16.920;2023-11-19T11:10:42;23.80;;;13.50;;
35576;SDS011;21680;52.400;16.920;2023-11-19T11:13:09;25.20;;;12.50;;
35576;SDS011;21680;52.400;16.920;2023-11-19T11:15:38;21.90;;;11.80;;
35576;SDS011;21680;52.400;16.920;2023-11-19T11:18:04;24.20;;;12.30;;
35576;SDS011;21680;52.400;16.920;2023-11-19T11:20:34;20.20;;;11.40;;
35576;SDS011;21680;52.400;16.920;2023-11-19T11:25:59;20.90;;;10.80;;
35576;SDS011;21680;52.400;16.920;2023-11-19T11:37:35;24.30;;;12.90;;
35576;SDS011;21680;52.400;16.920;2023-11-19T11:50:19;31.10;;;13.50;;
35576;SDS011;21680;52.400;16.920;2023-11-19T11:55:39;28.90;;;14.80;;
35576;SDS011;21680;52.400;16.920;2023-11-19T11:58:21;28.50;;;13.90;;
35576;SDS011;21680;52.400;16.920;2023-11-19T12:00:51;28.60;;;13.70;;
35576;SDS011;21680;52.400;16.920;2023-11-19T12:03:18;30.10;;;15.40;;
35576;SDS011;21680;52.400;16.920;2023-11-19T12:05:46;33.30;;;17.20;;
35576;SDS011;21680;52.400;16.920;2023-11-19T12:08:13;34.10;;;16.60;;
35576;SDS011;21680;52.400;16.920;2023-11-19T12:10:50;33.40;;;15.10;;
35576;SDS011;21680;52.400;16.920;2023-11-19T12:13:17;24.80;;;13.40;;
35576;SDS011;21680;52.400;16.920;2023-11-19T12:16:26;32.00;;;14.60;;
35576;SDS011;21680;52.400;16.920;2023-11-19T12:18:32;30.20;;;14.70;;
35576;SDS011;21680;52.400;16.920;2023-11-19T12:20:58;33.60;;;15.70;;
35576;SDS011;21680;52.400;16.920;2023-11-19T12:23:30;35.00;;;16.70;;
35576;SDS011;21680;52.400;16.920;2023-11-19T12:25:56;38.10;;;19.20;;
35576;SDS011;21680;52.400;16.920;2023-11-19T12:28:22;44.60;;;23.00;;
35576;SDS011;21680;52.400;16.920;2023-11-19T12:30:49;40.40;;;20.80;;
35576;SDS011;21680;52.400;16.920;2023-11-19T12:33:15;35.40;;;18.00;;
35576;SDS011;21680;52.400;16.920;2023-11-19T12:35:42;36.90;;;16.70;;
35576;SDS011;21680;52.400;16.920;2023-11-19T12:38:30;32.80;;;16.50;;
35576;SDS011;21680;52.400;16.920;2023-11-19T12:41:06;36.10;;;16.50;;
35576;SDS011;21680;52.400;16.920;2023-11-19T12:43:45;35.30;;;16.20;;
35576;SDS011;21680;52.400;16.920;2023-11-19T12:46:20;36.20;;;17.00;;
35576;SDS011;21680;52.400;16.920;2023-11-19T12:48:47;30.60;;;15.10;;
35576;SDS011;21680;52.400;16.920;2023-11-19T12:51:16;33.60;;;16.00;;
35576;SDS011;21680;52.400;16.920;2023-11-19T12:53:51;36.00;;;16.70;;
35576;SDS011;21680;52.400;16.920;2023-11-19T12:56:23;34.70;;;15.80;;
35576;SDS011;21680;52.400;16.920;2023-11-19T12:58:48;38.00;;;16.50;;
35576;SDS011;21680;52.400;16.920;2023-11-19T13:01:16;34.80;;;16.60;;
35576;SDS011;21680;52.400;16.920;2023-11-19T13:03:45;36.00;;;17.40;;
35576;SDS011;21680;52.400;16.920;2023-11-19T13:06:12;34.40;;;16.20;;
35576;SDS011;21680;52.400;16.920;2023-11-19T13:08:43;36.60;;;16.50;;
35576;SDS011;21680;52.400;16.920;2023-11-19T13:11:11;35.90;;;18.20;;
35576;SDS011;21680;52.400;16.920;2023-11-19T13:13:53;40.90;;;20.00;;
35576;SDS011;21680;52.400;16.920;2023-11-19T13:16:36;34.70;;;17.30;;
35576;SDS011;21680;52.400;16.920;2023-11-19T13:19:02;31.30;;;16.70;;
35576;SDS011;21680;52.400;16.920;2023-11-19T13:21:28;32.30;;;15.70;;
35576;SDS011;21680;52.400;16.920;2023-11-19T13:23:57;33.40;;;15.40;;
35576;SDS011;21680;52.400;16.920;2023-11-19T13:26:22;36.30;;;14.00;;
35576;SDS011;21680;52.400;16.920;2023-11-19T13:28:48;27.70;;;13.80;;
35576;SDS011;21680;52.400;16.920;2023-11-19T13:31:14;28.40;;;14.00;;
35576;SDS011;21680;52.400;16.920;2023-11-19T13:33:39;32.80;;;15.10;;
35576;SDS011;21680;52.400;16.920;2023-11-19T13:36:05;29.10;;;14.40;;
35576;SDS011;21680;52.400;16.920;2023-11-19T13:38:32;29.30;;;15.00;;
35576;SDS011;21680;52.400;16.920;2023-11-19T13:40:58;28.80;;;14.30;;
35576;SDS011;21680;52.400;16.920;2023-11-19T13:43:24;29.90;;;13.20;;
35576;SDS011;21680;52.400;16.920;2023-11-19T13:45:50;30.80;;;14.30;;
35576;SDS011;21680;52.400;16.920;2023-11-19T13:48:15;29.90;;;14.60;;
35576;SDS011;21680;52.400;16.920;2023-11-19T13:50:41;33.60;;;15.70;;
35576;SDS011;21680;52.400;16.920;2023-11-19T13:53:07;28.20;;;14.10;;
35576;SDS011;21680;52.400;16.920;2023-11-19T13:55:33;32.10;;;14.40;;
35576;SDS011;21680;52.400;16.920;2023-11-19T13:57:58;38.60;;;18.20;;
35576;SDS011;21680;52.400;16.920;2023-11-19T14:00:23;28.70;;;15.20;;
35576;SDS011;21680;52.400;16.920;2023-11-19T14:02:52;33.90;;;16.60;;
35576;SDS011;21680;52.400;16.920;2023-11-19T14:05:17;36.80;;;17.70;;
35576;SDS011;21680;52.400;16.920;2023-11-19T14:07:43;39.00;;;18.30;;
35576;SDS011;21680;52.400;16.920;2023-11-19T14:10:10;38.20;;;18.20;;
35576;SDS011;21680;52.400;16.920;2023-11-19T14:12:36;33.90;;;16.90;;
35576;SDS011;21680;52.400;16.920;2023-11-19T14:15:05;35.80;;;16.50;;
35576;SDS011;21680;52.400;16.920;2023-11-19T14:17:37;31.80;;;16.00;;
35576;SDS011;21680;52.400;16.920;2023-11-19T14:20:04;33.80;;;16.00;;
35576;SDS011;21680;52.400;16.920;2023-11-19T14:22:38;36.60;;;15.40;;
35576;SDS011;21680;52.400;16.920;2023-11-19T14:25:05;30.50;;;15.40;;
35576;SDS011;21680;52.400;16.920;2023-11-19T14:27:35;40.40;;;15.90;;
35576;SDS011;21680;52.400;16.920;2023-11-19T14:30:05;31.50;;;14.90;;
35576;SDS011;21680;52.400;16.920;2023-11-19T14:32:31;34.00;;;16.10;;
35576;SDS011;21680;52.400;16.920;2023-11-19T14:34:56;34.70;;;16.80;;
35576;SDS011;21680;52.400;16.920;2023-11-19T14:37:22;35.90;;;15.70;;